Time;durP1;ratioP1;P1;durP2;ratioP2;P2;SDS_P1;SDS_P2;PMS_P1;PMS_P2;Temp;Humidity;BMP_temperature;BMP_pressure;BME280_temperature;BME280_humidity;BME280_pressure;Samples;Min_cycle;Max_cycle;Signal;HPM_P1;HPM_P2
2023/06/15 00:00:57;;;;;;;1.73;0.73;;;;;;;27.69;39.02;102032.38;5001917;28;20068;-33
2023/06/15 00:03:25;;;;;;;0.77;0.63;;;;;;;27.67;38.67;102035.31;5029870;28;20458;-33
2023/06/15 00:05:52;;;;;;;1.42;0.90;;;;;;;27.67;38.83;102034.47;4992495;28;20125;-33
2023/06/15 00:08:19;;;;;;;0.90;0.75;;;;;;;27.66;39.24;102035.47;4998317;28;20061;-33
2023/06/15 00:10:45;;;;;;;0.52;0.52;;;;;;;27.65;39.08;102044.69;4998309;28;20140;-32
2023/06/15 00:13:12;;;;;;;0.77;0.68;;;;;;;27.65;38.69;102039.25;4998164;28;20276;-33
2023/06/15 00:15:39;;;;;;;2.20;0.90;;;;;;;27.63;39.16;102031.28;4998638;28;20408;-33
2023/06/15 00:18:06;;;;;;;0.80;0.70;;;;;;;27.63;39.16;102030.44;5001097;28;20058;-33
2023/06/15 00:20:34;;;;;;;1.10;0.85;;;;;;;27.62;39.36;102028.72;4997490;28;20042;-33
2023/06/15 00:23:01;;;;;;;1.65;0.82;;;;;;;27.61;38.85;102029.75;4999531;28;20051;-33
2023/06/15 00:25:27;;;;;;;1.45;1.00;;;;;;;27.60;39.34;102036.25;4999480;28;20050;-33
2023/06/15 00:27:54;;;;;;;0.63;0.60;;;;;;;27.59;39.05;102040.00;5002312;28;20469;-34
2023/06/15 00:30:21;;;;;;;0.90;0.70;;;;;;;27.58;39.14;102032.84;4999535;28;20042;-32
2023/06/15 00:32:47;;;;;;;0.88;0.75;;;;;;;27.56;38.94;102036.63;5001053;28;20105;-33
2023/06/15 00:35:14;;;;;;;1.08;0.75;;;;;;;27.55;38.88;102043.09;4998579;28;20112;-33
2023/06/15 00:37:42;;;;;;;0.90;0.65;;;;;;;27.54;38.77;102043.31;5000236;28;20474;-33
2023/06/15 00:40:09;;;;;;;1.15;0.90;;;;;;;27.54;38.98;102038.69;4998711;28;20049;-33
2023/06/15 00:42:39;;;;;;;1.10;0.80;;;;;;;27.52;39.49;102031.75;4999887;28;20058;-33
2023/06/15 00:45:06;;;;;;;0.73;0.73;;;;;;;27.50;39.23;102040.09;4996897;28;20132;-33
2023/06/15 00:47:38;;;;;;;0.93;0.82;;;;;;;27.51;39.26;102035.50;4996740;28;20062;-34
2023/06/15 00:50:10;;;;;;;1.98;0.82;;;;;;;27.47;39.41;102043.19;4996941;28;20432;-33
2023/06/15 00:52:37;;;;;;;1.05;0.70;;;;;;;27.49;39.18;102040.28;4995335;28;20503;-32
2023/06/15 00:55:04;;;;;;;1.25;0.93;;;;;;;27.47;39.56;102043.19;4997946;28;20431;-33
2023/06/15 00:57:32;;;;;;;1.40;0.90;;;;;;;27.45;39.56;102047.97;4994239;28;20081;-33
2023/06/15 00:59:59;;;;;;;0.93;0.75;;;;;;;27.44;38.93;102043.56;5002685;28;20345;-34
2023/06/15 01:02:28;;;;;;;0.77;0.65;;;;;;;27.44;39.55;102049.00;4996132;28;20116;-32
2023/06/15 01:04:55;;;;;;;0.70;0.68;;;;;;;27.42;39.60;102045.66;4994470;28;20114;-33
2023/06/15 01:07:27;;;;;;;0.88;0.63;;;;;;;27.41;39.49;102048.53;5002498;28;20081;-32
2023/06/15 01:09:56;;;;;;;0.95;0.80;;;;;;;27.40;39.53;102036.81;5006051;28;20422;-33
2023/06/15 01:12:24;;;;;;;1.02;0.88;;;;;;;27.39;39.34;102043.28;5003514;28;20062;-32
2023/06/15 01:14:51;;;;;;;1.60;0.82;;;;;;;27.39;39.40;102042.44;5001074;28;20413;-33
2023/06/15 01:17:23;;;;;;;1.17;0.60;;;;;;;27.38;39.31;102040.72;5006421;28;20381;-33
2023/06/15 01:19:57;;;;;;;0.88;0.80;;;;;;;27.36;39.42;102043.66;5001029;28;20080;-33
2023/06/15 01:22:55;;;;;;;1.95;0.65;;;;;;;27.34;39.61;102045.75;5004867;28;20437;-33
2023/06/15 01:25:40;;;;;;;1.10;0.85;;;;;;;27.34;39.61;102045.75;5007404;28;20373;-33
2023/06/15 01:28:09;;;;;;;1.30;0.98;;;;;;;27.33;39.24;102046.75;5006941;28;20331;-33
2023/06/15 01:30:48;;;;;;;1.42;1.05;;;;;;;27.31;39.46;102040.66;5005594;28;20046;-33
2023/06/15 01:33:15;;;;;;;1.02;0.70;;;;;;;27.31;39.61;102046.94;5003236;28;20083;-33
2023/06/15 01:35:42;;;;;;;1.17;0.82;;;;;;;27.31;39.56;102043.38;5003869;28;20057;-32
2023/06/15 01:38:10;;;;;;;1.15;1.05;;;;;;;27.30;39.79;102042.53;5001872;28;20159;-32
2023/06/15 01:40:39;;;;;;;1.27;0.95;;;;;;;27.29;39.54;102049.00;5004711;28;20072;-33
2023/06/15 01:43:08;;;;;;;0.93;0.75;;;;;;;27.28;39.99;102041.88;4999733;28;20092;-32
2023/06/15 01:45:36;;;;;;;0.90;0.80;;;;;;;27.27;39.33;102042.91;4994298;28;20092;-33
2023/06/15 01:48:03;;;;;;;0.70;0.70;;;;;;;27.27;39.63;102042.06;4993299;28;20125;-34
2023/06/15 01:50:30;;;;;;;1.50;0.82;;;;;;;27.25;39.47;102042.22;4990817;28;20062;-33
2023/06/15 01:52:57;;;;;;;0.85;0.70;;;;;;;27.25;39.67;102041.38;4996904;28;20088;-33
2023/06/15 01:55:24;;;;;;;0.90;0.80;;;;;;;27.23;39.65;102047.03;4996774;28;20100;-32
2023/06/15 01:57:53;;;;;;;2.90;1.02;;;;;;;27.23;39.71;102040.75;4993675;28;20315;-32
2023/06/15 02:00:22;;;;;;;1.25;1.08;;;;;;;27.22;39.54;102044.50;5001802;28;20084;-33
2023/06/15 02:02:50;;;;;;;1.13;0.93;;;;;;;27.23;39.58;102051.63;4998913;28;20089;-32
2023/06/15 02:05:17;;;;;;;1.63;0.98;;;;;;;27.21;39.46;102038.19;4994497;28;20153;-33
2023/06/15 02:07:45;;;;;;;1.10;1.00;;;;;;;27.21;39.89;102037.34;4991460;28;20413;-33
2023/06/15 02:10:11;;;;;;;0.82;0.82;;;;;;;27.19;39.81;102042.16;4995138;28;20050;-33
2023/06/15 02:12:38;;;;;;;1.90;0.98;;;;;;;27.19;39.67;102045.72;4991488;28;20043;-33
2023/06/15 02:15:05;;;;;;;1.58;1.17;;;;;;;27.18;39.96;102043.19;4996115;28;20058;-33
2023/06/15 02:17:38;;;;;;;1.58;1.10;;;;;;;27.16;39.70;102040.63;4994792;28;20058;-33
2023/06/15 02:20:09;;;;;;;;;;;;;;;27.15;39.86;102040.81;4998723;28;20398;-33
2023/06/15 02:22:36;;;;;;;0.88;0.70;;;;;;;27.17;39.88;102044.19;4996761;28;19957;-32
2023/06/15 02:25:03;;;;;;;1.52;1.00;;;;;;;27.17;39.98;102046.91;5003297;28;20050;-33
2023/06/15 02:27:29;;;;;;;1.58;0.98;;;;;;;27.15;39.86;102052.56;4996646;28;20414;-33
2023/06/15 02:29:56;;;;;;;0.75;0.70;;;;;;;27.14;40.04;102052.75;4996643;28;20087;-33
2023/06/15 02:32:37;;;;;;;2.83;0.98;;;;;;;27.12;39.94;102055.66;5000857;28;20073;-33
2023/06/15 02:35:10;;;;;;;1.02;0.80;;;;;;;27.13;39.70;102059.19;5000912;28;20062;-33
2023/06/15 02:37:38;;;;;;;1.77;1.13;;;;;;;27.13;40.01;102061.94;5004298;28;20108;-33
2023/06/15 02:40:06;;;;;;;1.48;0.90;;;;;;;27.11;40.12;102061.28;5005313;28;20070;-33
2023/06/15 02:42:33;;;;;;;2.53;1.23;;;;;;;27.11;39.82;102058.56;5004709;28;20073;-32
2023/06/15 02:45:01;;;;;;;1.38;0.90;;;;;;;27.09;39.84;102055.97;5037298;28;20050;-33
2023/06/15 02:47:31;;;;;;;1.90;1.25;;;;;;;27.08;39.53;102052.41;5003007;28;20054;-32
2023/06/15 02:50:00;;;;;;;1.50;1.08;;;;;;;27.09;39.94;102061.41;5006308;28;20061;-33
2023/06/15 02:52:30;;;;;;;3.33;1.10;;;;;;;27.07;39.75;102053.44;4994288;28;20442;-33
2023/06/15 02:55:00;;;;;;;2.47;0.73;;;;;;;27.07;40.06;102063.50;5005374;28;20057;-34
2023/06/15 02:57:27;;;;;;;1.63;0.98;;;;;;;27.07;39.63;102055.31;5006801;28;20054;-32
2023/06/15 02:59:54;;;;;;;1.13;0.95;;;;;;;27.06;39.85;102059.09;5005795;28;20103;-32
2023/06/15 03:02:21;;;;;;;2.10;1.45;;;;;;;27.05;39.75;102060.94;5003490;28;20050;-33
2023/06/15 03:04:50;;;;;;;1.77;0.95;;;;;;;27.06;39.91;102061.81;5006808;28;20058;-33
2023/06/15 03:07:20;;;;;;;1.67;0.98;;;;;;;27.04;39.80;102056.53;5005829;28;20054;-32
2023/06/15 03:09:47;;;;;;;1.00;0.93;;;;;;;27.04;39.81;102061.97;5005505;28;20082;-33
2023/06/15 03:12:13;;;;;;;1.60;1.10;;;;;;;27.03;39.79;102057.56;5004329;28;20246;-34
2023/06/15 03:14:44;;;;;;;1.95;0.70;;;;;;;27.03;40.07;102059.44;5004649;28;20378;-33
2023/06/15 03:17:12;;;;;;;1.40;1.00;;;;;;;27.02;39.86;102060.47;5002881;28;20046;-33
2023/06/15 03:19:40;;;;;;;2.03;0.98;;;;;;;27.01;39.84;102065.06;5001953;28;20274;-32
2023/06/15 03:22:09;;;;;;;0.95;0.82;;;;;;;27.00;40.05;102057.94;5000753;28;20045;-33
2023/06/15 03:24:36;;;;;;;1.40;0.93;;;;;;;27.01;39.80;102064.22;5004299;28;20053;-33
2023/06/15 03:27:06;;;;;;;1.13;1.00;;;;;;;26.99;40.07;102064.41;4994036;28;20358;-33
2023/06/15 03:29:36;;;;;;;1.88;1.27;;;;;;;26.99;39.97;102072.56;4997768;28;20050;-33
2023/06/15 03:32:05;;;;;;;3.28;1.05;;;;;;;26.99;40.04;102069.00;5005741;28;20446;-33
2023/06/15 03:34:32;;;;;;;2.13;1.00;;;;;;;26.99;40.04;102072.56;5017097;28;20046;-33
2023/06/15 03:36:59;;;;;;;1.05;0.93;;;;;;;26.98;40.18;102070.03;4997937;28;20435;-33
2023/06/15 03:39:25;;;;;;;1.85;1.50;;;;;;;26.98;40.22;102070.03;5000494;28;20054;-33
2023/06/15 03:41:52;;;;;;;1.60;1.38;;;;;;;26.98;40.13;102080.94;4997839;28;20055;-33
2023/06/15 03:44:19;;;;;;;1.55;1.10;;;;;;;26.97;39.84;102073.78;4999189;28;20137;-33
2023/06/15 03:46:47;;;;;;;1.27;1.08;;;;;;;26.96;40.25;102064.75;4993953;28;20150;-33
2023/06/15 03:49:14;;;;;;;1.13;0.90;;;;;;;26.95;39.98;102073.97;4996751;28;20050;-33
2023/06/15 03:51:41;;;;;;;1.58;1.23;;;;;;;26.95;39.93;102071.25;4998601;28;20391;-34
2023/06/15 03:54:07;;;;;;;1.42;1.20;;;;;;;26.94;40.17;102066.00;4996739;28;20104;-33
2023/06/15 03:56:34;;;;;;;1.40;1.02;;;;;;;26.95;39.93;102070.41;5000055;28;20473;-34
2023/06/15 03:59:01;;;;;;;1.75;1.10;;;;;;;26.93;40.05;102067.84;5008597;28;20049;-33
2023/06/15 04:01:27;;;;;;;1.70;1.38;;;;;;;26.93;40.06;102070.56;5009224;28;20389;-32
2023/06/15 04:03:54;;;;;;;2.67;1.17;;;;;;;26.92;40.33;102068.03;4998749;28;20085;-32
2023/06/15 04:06:21;;;;;;;1.73;0.90;;;;;;;26.91;40.14;102069.09;5001385;28;20133;-33
2023/06/15 04:08:48;;;;;;;1.23;1.00;;;;;;;26.91;40.20;102078.09;5000827;28;20050;-32
2023/06/15 04:11:15;;;;;;;1.58;0.93;;;;;;;26.90;40.05;102072.84;5000187;28;20133;-33
2023/06/15 04:13:42;;;;;;;1.42;1.20;;;;;;;26.90;40.09;102068.25;4997651;28;20050;-33
2023/06/15 04:16:10;;;;;;;1.10;0.85;;;;;;;26.89;40.23;102068.41;5001211;28;20057;-33
2023/06/15 04:18:37;;;;;;;1.92;1.25;;;;;;;26.88;40.11;102073.00;4998350;28;20054;-33
2023/06/15 04:21:04;;;;;;;1.92;1.25;;;;;;;26.88;40.36;102075.72;4998986;28;20054;-33
2023/06/15 04:23:31;;;;;;;2.65;1.10;;;;;;;26.88;40.15;102077.59;4999190;28;20076;-33
2023/06/15 04:26:00;;;;;;;1.25;1.05;;;;;;;26.88;40.41;102075.72;5002032;28;20397;-33
2023/06/15 04:28:27;;;;;;;1.48;1.23;;;;;;;26.87;40.16;102079.47;5000118;28;20479;-33
2023/06/15 04:31:06;;;;;;;2.33;0.90;;;;;;;26.85;40.55;102078.81;5001301;28;20109;-33
2023/06/15 04:33:33;;;;;;;1.52;1.10;;;;;;;26.87;40.10;102071.31;5001853;28;20129;-32
2023/06/15 04:36:01;;;;;;;1.35;1.23;;;;;;;26.86;40.33;102080.53;5001062;28;20066;-33
2023/06/15 04:38:29;;;;;;;2.58;1.20;;;;;;;26.87;40.25;102084.09;5001428;28;20065;-32
2023/06/15 04:40:56;;;;;;;1.35;1.15;;;;;;;26.86;40.17;102080.53;5000071;28;20058;-33
2023/06/15 04:43:26;;;;;;;2.03;1.13;;;;;;;26.87;40.16;102084.91;4999663;28;20046;-33
2023/06/15 04:45:52;;;;;;;1.73;1.20;;;;;;;26.88;40.37;102093.94;5001762;28;20105;-33
2023/06/15 04:48:19;;;;;;;1.65;1.30;;;;;;;26.88;40.18;102086.59;5001733;28;20478;-33
2023/06/15 04:50:48;;;;;;;1.83;1.27;;;;;;;26.89;40.15;102088.28;5005557;28;20337;-33
2023/06/15 04:53:17;;;;;;;1.85;1.30;;;;;;;26.89;40.36;102091.00;5000710;28;20449;-33
2023/06/15 04:55:44;;;;;;;2.53;1.35;;;;;;;26.91;40.13;102096.28;4999353;28;20474;-34
2023/06/15 04:58:12;;;;;;;1.52;1.25;;;;;;;26.92;40.30;102100.69;4997266;28;20137;-33
2023/06/15 05:00:39;;;;;;;1.10;1.00;;;;;;;26.93;40.05;102100.50;5001570;28;20134;-33
2023/06/15 05:03:05;;;;;;;1.45;1.10;;;;;;;26.95;40.27;102097.63;5000320;28;20101;-34
2023/06/15 05:05:32;;;;;;;1.52;1.20;;;;;;;26.96;40.29;102100.16;4995949;28;20137;-33
2023/06/15 05:07:59;;;;;;;1.73;1.15;;;;;;;26.98;39.68;102097.25;4997296;28;20484;-32
2023/06/15 05:10:25;;;;;;;1.83;1.15;;;;;;;26.99;40.24;102097.06;4998955;28;20121;-32
2023/06/15 05:13:11;;;;;;;1.55;1.25;;;;;;;27.01;40.20;102103.16;4994384;28;20342;-32
2023/06/15 05:15:37;;;;;;;2.58;1.42;;;;;;;27.03;40.17;102109.28;4997983;28;20096;-33
2023/06/15 05:18:04;;;;;;;2.35;1.50;;;;;;;27.05;40.38;102107.19;4992560;28;20098;-33
2023/06/15 05:20:31;;;;;;;2.80;1.13;;;;;;;27.06;40.12;102105.34;4995471;28;20046;-34
2023/06/15 05:22:58;;;;;;;1.42;1.02;;;;;;;27.08;40.07;102109.56;4996172;28;20054;-33
2023/06/15 05:25:24;;;;;;;1.33;1.00;;;;;;;27.11;40.11;102104.84;5007802;28;20107;-33
2023/06/15 05:27:51;;;;;;;1.50;1.17;;;;;;;27.11;40.22;102102.94;5002561;28;20072;-33
2023/06/15 05:30:18;;;;;;;1.80;1.23;;;;;;;27.15;39.83;102103.44;4996665;28;20050;-33
2023/06/15 05:32:44;;;;;;;2.42;1.40;;;;;;;27.17;39.65;102109.53;5005869;28;20458;-33
2023/06/15 05:35:11;;;;;;;1.23;1.13;;;;;;;27.18;39.72;102105.78;5008006;28;20046;-32
2023/06/15 05:37:39;;;;;;;1.48;1.00;;;;;;;27.21;39.85;102108.97;5004337;28;20061;-33
2023/06/15 05:40:06;;;;;;;2.13;1.10;;;;;;;27.23;39.66;102106.91;5007362;28;20046;-33
2023/06/15 05:42:32;;;;;;;1.30;1.05;;;;;;;27.25;39.98;102104.00;5000715;28;20576;-33
2023/06/15 05:44:59;;;;;;;1.30;1.10;;;;;;;27.28;39.73;102109.09;4996165;28;20115;-33
2023/06/15 05:47:26;;;;;;;1.05;0.93;;;;;;;27.30;39.87;102107.03;4995078;28;20375;-32
2023/06/15 05:49:52;;;;;;;1.75;1.05;;;;;;;27.32;39.64;102104.97;4993767;28;20064;-33
2023/06/15 05:52:19;;;;;;;1.65;1.10;;;;;;;27.34;39.47;102113.81;4991874;28;20394;-32
2023/06/15 05:54:46;;;;;;;1.83;1.10;;;;;;;27.36;39.52;102110.88;4995289;28;20101;-33
2023/06/15 05:57:13;;;;;;;1.30;0.90;;;;;;;27.37;39.69;102107.13;4998904;28;20090;-33
2023/06/15 05:59:40;;;;;;;1.70;1.30;;;;;;;27.39;39.73;102111.38;5000503;28;20061;-32
2023/06/15 06:02:09;;;;;;;1.35;1.20;;;;;;;27.39;39.68;102100.47;5001005;28;20050;-32
2023/06/15 06:04:37;;;;;;;1.92;1.10;;;;;;;27.41;39.17;102109.28;4994604;28;20088;-33
2023/06/15 06:07:07;;;;;;;2.38;1.10;;;;;;;27.43;39.10;102112.69;4996744;28;20046;-33
2023/06/15 06:09:34;;;;;;;2.58;1.13;;;;;;;27.44;39.57;102114.38;4995965;28;20104;-33
2023/06/15 06:12:01;;;;;;;2.42;1.02;;;;;;;27.45;39.56;102109.75;4996968;28;20074;-32
2023/06/15 06:14:28;;;;;;;1.42;1.13;;;;;;;27.44;39.43;102114.38;4996239;28;20054;-33
2023/06/15 06:16:55;;;;;;;1.40;1.13;;;;;;;27.45;39.49;102118.78;5006197;28;20352;-32
2023/06/15 06:19:23;;;;;;;1.10;1.00;;;;;;;27.45;39.25;102112.50;4994388;28;20046;-33
2023/06/15 06:21:50;;;;;;;1.45;1.20;;;;;;;27.45;39.40;102113.31;4997047;28;20061;-33
2023/06/15 06:24:17;;;;;;;1.52;1.20;;;;;;;27.45;39.65;102123.38;4995727;28;20046;-33
2023/06/15 06:26:48;;;;;;;1.45;1.30;;;;;;;27.46;39.34;102125.09;4997590;28;20125;-33
2023/06/15 06:29:15;;;;;;;1.73;1.23;;;;;;;27.46;39.47;102125.94;4995399;28;20124;-32
2023/06/15 06:31:42;;;;;;;1.17;1.05;;;;;;;27.46;38.95;102125.94;4996726;28;20067;-33
2023/06/15 06:34:10;;;;;;;1.20;1.10;;;;;;;27.46;39.29;102123.22;4993224;28;20062;-33
2023/06/15 06:36:37;;;;;;;1.73;0.85;;;;;;;27.47;39.22;102119.44;4993778;28;20458;-34
2023/06/15 06:39:04;;;;;;;1.92;1.23;;;;;;;27.47;39.52;102119.44;4992845;28;20065;-33
2023/06/15 06:41:30;;;;;;;1.75;0.88;;;;;;;27.48;39.56;102121.13;4997604;28;20069;-33
2023/06/15 06:43:57;;;;;;;1.20;1.10;;;;;;;27.48;39.42;102112.97;4995379;28;20398;-33
2023/06/15 06:46:23;;;;;;;1.45;0.98;;;;;;;27.49;39.44;102120.09;4995769;28;20281;-33
2023/06/15 06:48:51;;;;;;;1.08;0.88;;;;;;;27.49;38.94;102120.09;5000672;28;20077;-33
2023/06/15 06:51:18;;;;;;;2.17;1.10;;;;;;;27.51;39.41;102122.66;5000081;28;20046;-33
2023/06/15 06:53:45;;;;;;;1.58;1.35;;;;;;;27.51;39.30;102114.47;5001193;28;20061;-33
2023/06/15 06:56:12;;;;;;;1.50;1.10;;;;;;;27.50;39.43;102113.63;5004177;28;20128;-33
2023/06/15 06:58:38;;;;;;;1.42;0.73;;;;;;;27.51;39.17;102114.47;5002476;28;20137;-33
2023/06/15 07:01:08;;;;;;;1.85;1.17;;;;;;;27.50;39.64;102119.09;5005414;28;20140;-33
2023/06/15 07:03:35;;;;;;;1.80;1.33;;;;;;;27.51;39.64;102119.94;5031248;28;20054;-32
2023/06/15 07:06:02;;;;;;;1.50;1.17;;;;;;;27.51;39.47;102120.78;5005531;28;20050;-33
2023/06/15 07:08:29;;;;;;;1.50;1.08;;;;;;;27.51;39.18;102118.03;5007398;28;20050;-33
2023/06/15 07:11:00;;;;;;;1.42;1.00;;;;;;;27.51;39.73;102125.38;5006792;28;20077;-33
2023/06/15 07:13:27;;;;;;;2.05;1.30;;;;;;;27.51;39.65;102128.09;4993819;28;20431;-33
2023/06/15 07:15:56;;;;;;;1.63;1.25;;;;;;;27.51;39.30;102120.78;5002296;28;20133;-33
2023/06/15 07:18:23;;;;;;;1.33;0.90;;;;;;;27.51;39.30;102123.50;5005023;28;20436;-33
2023/06/15 07:20:53;;;;;;;1.05;0.95;;;;;;;27.51;39.04;102123.50;5004880;28;20105;-32
2023/06/15 07:23:23;;;;;;;2.35;1.08;;;;;;;27.52;39.56;102122.44;5004083;28;20050;-33
2023/06/15 07:25:51;;;;;;;1.92;1.35;;;;;;;27.52;39.11;102119.72;5006015;28;20477;-33
2023/06/15 07:28:19;;;;;;;1.30;1.20;;;;;;;27.53;39.18;102123.28;5003791;28;20058;-33
2023/06/15 07:30:49;;;;;;;1.40;1.25;;;;;;;27.53;39.38;102126.84;5004597;28;20054;-33
2023/06/15 07:33:16;;;;;;;1.08;0.95;;;;;;;27.53;39.12;102124.13;5005936;28;20054;-33
2023/06/15 07:35:43;;;;;;;1.83;1.30;;;;;;;27.54;39.53;102119.56;4993979;28;20109;-33
2023/06/15 07:38:10;;;;;;;1.67;1.02;;;;;;;27.54;39.59;102112.22;5002670;28;20439;-33
2023/06/15 07:40:36;;;;;;;1.52;1.13;;;;;;;27.55;39.34;102119.38;5004030;28;20437;-34
2023/06/15 07:43:03;;;;;;;1.20;0.93;;;;;;;27.55;39.07;102129.41;5001010;28;20165;-32
2023/06/15 07:45:30;;;;;;;1.42;1.02;;;;;;;27.54;39.12;102125.84;4993550;28;20366;-33
2023/06/15 07:47:56;;;;;;;2.25;1.40;;;;;;;27.55;39.47;102122.09;4997073;28;20046;-32
2023/06/15 07:50:23;;;;;;;2.22;1.10;;;;;;;27.55;39.46;102127.53;4997438;28;20129;-33
2023/06/15 07:52:51;;;;;;;1.88;1.25;;;;;;;27.55;38.98;102124.81;4996857;28;20058;-33
2023/06/15 07:55:17;;;;;;;1.48;1.15;;;;;;;27.56;39.28;102134.66;4996534;28;20058;-32
2023/06/15 07:57:44;;;;;;;1.48;1.20;;;;;;;27.58;39.61;102133.63;4995890;28;20382;-33
2023/06/15 08:00:11;;;;;;;1.75;1.20;;;;;;;27.58;39.29;102137.22;5001293;28;20088;-33
2023/06/15 08:02:38;;;;;;;1.55;1.10;;;;;;;27.58;39.34;102125.47;4999562;28;20046;-33
2023/06/15 08:05:05;;;;;;;1.63;1.10;;;;;;;27.59;39.18;102130.75;5005824;28;20081;-33
2023/06/15 08:07:32;;;;;;;1.40;1.00;;;;;;;27.60;39.62;102124.25;4995395;28;20116;-33
2023/06/15 08:09:59;;;;;;;1.50;1.00;;;;;;;27.60;39.63;102124.25;4997971;28;20093;-32
2023/06/15 08:12:26;;;;;;;1.27;0.98;;;;;;;27.60;39.26;102124.25;5005269;28;20042;-33
2023/06/15 08:14:53;;;;;;;1.95;1.23;;;;;;;27.61;39.35;102119.66;4996684;28;20107;-33
2023/06/15 08:17:19;;;;;;;1.35;1.13;;;;;;;27.61;38.91;102115.03;5001120;28;20053;-33
2023/06/15 08:19:47;;;;;;;2.55;1.20;;;;;;;27.62;39.27;102114.03;4999186;28;20377;-33
2023/06/15 08:22:14;;;;;;;1.65;1.30;;;;;;;27.63;39.26;102115.72;5000061;28;20046;-33
2023/06/15 08:24:40;;;;;;;1.55;1.00;;;;;;;27.63;39.35;102121.16;5001911;28;20050;-34
2023/06/15 08:27:08;;;;;;;2.13;0.82;;;;;;;27.63;39.29;102118.44;5001258;28;20112;-33
2023/06/15 08:29:35;;;;;;;1.40;1.10;;;;;;;27.65;39.15;102129.97;4999824;28;20078;-34
2023/06/15 08:32:02;;;;;;;1.77;1.30;;;;;;;27.65;39.14;102126.41;5001172;28;20092;-34
2023/06/15 08:34:29;;;;;;;1.63;1.20;;;;;;;27.66;39.00;102128.09;5000235;28;20108;-33
2023/06/15 08:36:56;;;;;;;1.15;1.00;;;;;;;27.67;39.56;102129.81;4999747;28;20054;-34
2023/06/15 08:39:22;;;;;;;1.17;1.00;;;;;;;27.68;39.43;102134.22;4999865;28;20489;-33
2023/06/15 08:41:51;;;;;;;2.28;1.38;;;;;;;27.68;39.03;102126.03;5003055;28;20132;-33
2023/06/15 08:44:19;;;;;;;1.98;1.23;;;;;;;27.69;39.18;102127.72;5001619;28;20359;-33
2023/06/15 08:46:47;;;;;;;2.00;1.30;;;;;;;27.70;38.94;102126.69;5002273;28;20058;-33
2023/06/15 08:49:14;;;;;;;1.73;1.40;;;;;;;27.70;38.89;102126.69;5003625;28;20117;-33
2023/06/15 08:51:42;;;;;;;1.15;0.93;;;;;;;27.69;38.97;102125.84;5003745;28;20046;-34
2023/06/15 08:54:09;;;;;;;2.40;1.15;;;;;;;27.71;39.39;102131.13;5001849;28;20081;-34
2023/06/15 08:56:38;;;;;;;1.48;1.10;;;;;;;27.71;39.39;102126.50;4995806;28;20223;-33
2023/06/15 08:59:06;;;;;;;1.00;0.90;;;;;;;27.73;39.35;102126.31;5000581;28;20137;-33
2023/06/15 09:01:33;;;;;;;3.17;1.30;;;;;;;27.74;39.29;102128.91;5001406;28;20390;-33
2023/06/15 09:04:01;;;;;;;1.20;1.08;;;;;;;27.74;39.28;102125.31;5000113;28;20092;-33
2023/06/15 09:06:27;;;;;;;1.60;1.27;;;;;;;27.76;39.62;102124.09;5031548;28;20056;-31
2023/06/15 09:08:54;;;;;;;1.40;1.20;;;;;;;27.75;39.31;102133.31;5007804;28;20046;-35
2023/06/15 09:11:22;;;;;;;1.35;1.02;;;;;;;27.78;39.27;102130.22;4999433;28;20405;-34
2023/06/15 09:13:58;;;;;;;1.35;1.10;;;;;;;27.78;39.00;102135.66;4997320;28;20046;-33
2023/06/15 09:16:25;;;;;;;1.15;1.05;;;;;;;27.80;39.07;102133.59;5000279;28;20056;-34
2023/06/15 09:18:51;;;;;;;2.10;1.15;;;;;;;27.83;38.91;102135.09;4997991;28;20153;-33
2023/06/15 09:21:23;;;;;;;1.65;1.38;;;;;;;27.85;39.37;102137.63;4996593;28;20053;-33
2023/06/15 09:23:49;;;;;;;1.48;1.10;;;;;;;27.87;39.28;102130.13;4999970;28;20344;-34
2023/06/15 09:26:25;;;;;;;1.83;1.25;;;;;;;27.89;39.55;102134.34;5026781;28;20050;-34
2023/06/15 09:28:56;;;;;;;1.77;1.40;;;;;;;27.92;39.31;102127.69;4999853;28;20050;-33
2023/06/15 09:31:41;;;;;;;1.55;1.15;;;;;;;27.94;39.74;102126.47;4995895;28;20054;-32
2023/06/15 09:34:10;;;;;;;1.67;1.15;;;;;;;27.98;39.05;102122.31;4998824;28;20046;-33
2023/06/15 09:36:44;;;;;;;1.27;1.00;;;;;;;28.00;39.51;102120.25;5000291;28;20064;-32
2023/06/15 09:39:13;;;;;;;1.67;1.30;;;;;;;28.04;39.60;102123.44;4990496;28;20069;-32
2023/06/15 09:41:52;;;;;;;1.42;1.15;;;;;;;28.06;39.75;102121.34;5002677;28;20061;-33
2023/06/15 09:44:21;;;;;;;1.40;1.30;;;;;;;28.11;39.32;102121.66;4997243;28;20073;-34
2023/06/15 09:46:59;;;;;;;2.15;1.33;;;;;;;28.14;39.65;102126.72;4997182;28;20129;-33
2023/06/15 09:49:31;;;;;;;1.08;0.98;;;;;;;28.18;39.47;102116.25;4998361;28;20729;-33
2023/06/15 09:51:58;;;;;;;1.55;1.25;;;;;;;28.20;39.17;102117.78;5001386;28;20108;-33
2023/06/15 09:54:29;;;;;;;1.60;1.20;;;;;;;28.23;39.19;102109.22;4999326;28;20142;-33
2023/06/15 09:56:57;;;;;;;2.22;1.10;;;;;;;28.26;39.62;102110.69;4995700;28;20145;-33
2023/06/15 09:59:23;;;;;;;2.47;1.30;;;;;;;28.29;39.86;102115.78;4992979;28;20054;-34
2023/06/15 10:01:54;;;;;;;1.35;1.20;;;;;;;28.32;39.62;102117.28;5004585;28;20104;-33
2023/06/15 10:04:25;;;;;;;1.05;0.95;;;;;;;28.33;39.36;102114.34;4995668;28;20485;-33
2023/06/15 10:07:00;;;;;;;2.22;0.90;;;;;;;28.37;39.19;102112.97;4995528;28;20739;-33
2023/06/15 10:09:28;;;;;;;2.28;1.40;;;;;;;28.41;39.40;102117.00;4999115;28;20328;-34
2023/06/15 10:12:03;;;;;;;1.17;1.05;;;;;;;28.42;38.95;102113.25;4996996;28;20050;-33
2023/06/15 10:15:04;;;;;;;1.92;1.27;;;;;;;28.44;39.21;102113.06;4997660;28;20112;-33
2023/06/15 10:17:34;;;;;;;1.10;0.95;;;;;;;28.48;39.49;102106.19;4998187;28;20049;-33
2023/06/15 10:20:09;;;;;;;1.55;1.05;;;;;;;28.50;38.81;102115.00;4995896;28;20056;-32
2023/06/15 10:22:45;;;;;;;1.83;0.95;;;;;;;28.52;38.89;102112.94;5005373;28;20046;-34
2023/06/15 10:25:14;;;;;;;1.98;1.30;;;;;;;28.55;38.84;102112.56;4999495;28;20456;-34
2023/06/15 10:27:42;;;;;;;1.60;1.00;;;;;;;28.57;38.81;102115.06;4998102;28;20057;-33
2023/06/15 10:30:38;;;;;;;1.65;1.08;;;;;;;28.58;39.42;102114.03;4997973;28;20058;-33
2023/06/15 10:33:27;;;;;;;1.65;1.13;;;;;;;28.60;39.47;102117.44;4999219;28;20418;-33
2023/06/15 10:35:59;;;;;;;1.40;0.98;;;;;;;28.63;39.34;102114.31;4994786;28;20319;-32
2023/06/15 10:38:42;;;;;;;1.50;1.23;;;;;;;28.64;39.08;102116.84;4997944;28;20105;-33
2023/06/15 10:41:10;;;;;;;1.00;0.90;;;;;;;28.67;39.48;102116.47;4999347;28;20089;-35
2023/06/15 10:43:36;;;;;;;1.90;1.00;;;;;;;28.69;39.06;102113.53;4999859;28;20133;-33
2023/06/15 10:46:03;;;;;;;1.58;1.20;;;;;;;28.70;38.86;102110.59;4998629;28;20426;-33
2023/06/15 10:48:30;;;;;;;2.22;1.02;;;;;;;28.72;39.28;102111.25;5000248;28;20093;-33
2023/06/15 10:51:08;;;;;;;2.42;1.27;;;;;;;28.74;39.46;102109.19;4999578;28;20054;-33
2023/06/15 10:53:40;;;;;;;1.33;1.17;;;;;;;28.75;39.47;102113.59;5000460;28;20042;-33
2023/06/15 10:56:16;;;;;;;4.40;1.33;;;;;;;28.78;38.89;102104.16;4996876;28;20350;-33
2023/06/15 10:58:51;;;;;;;1.42;1.23;;;;;;;28.80;38.96;102115.75;5002291;28;20077;-33
2023/06/15 11:01:23;;;;;;;1.20;1.08;;;;;;;28.82;38.96;102107.34;5000679;28;20120;-33
2023/06/15 11:03:54;;;;;;;1.92;1.38;;;;;;;28.84;38.52;102108.84;4995598;28;20489;-33
2023/06/15 11:06:29;;;;;;;2.17;1.27;;;;;;;28.85;39.41;102106.97;4997761;28;20108;-33
2023/06/15 11:09:02;;;;;;;1.23;1.13;;;;;;;28.87;38.51;102107.63;5005883;28;20046;-35
2023/06/15 11:11:28;;;;;;;2.35;1.33;;;;;;;28.89;38.95;102102.81;5008328;28;20108;-33
2023/06/15 11:14:03;;;;;;;1.45;1.17;;;;;;;28.90;38.84;102101.75;5007163;28;20046;-33
2023/06/15 11:16:31;;;;;;;1.70;1.35;;;;;;;28.91;38.51;102103.47;5009266;28;20104;-33
2023/06/15 11:19:22;;;;;;;1.10;1.00;;;;;;;28.92;38.68;102100.53;5008780;28;20053;-33
2023/06/15 11:21:59;;;;;;;1.23;1.10;;;;;;;28.96;39.20;102099.09;5006164;28;20108;-33
2023/06/15 11:24:29;;;;;;;2.58;1.30;;;;;;;28.98;39.00;102102.50;5003873;28;20077;-34
2023/06/15 11:27:02;;;;;;;2.13;1.35;;;;;;;28.98;38.52;102102.50;5008330;28;20104;-33
2023/06/15 11:29:33;;;;;;;1.52;1.35;;;;;;;29.00;38.56;102094.97;5004611;28;20085;-33
2023/06/15 11:32:02;;;;;;;3.15;1.20;;;;;;;29.02;38.61;102101.06;5005834;28;20342;-33